Elk Creek, NY

8:00 PM EDT on June 28, 2016 (GMT -0400)
Worcester Farm | Change Station
CLOSE
Current Station
Personal Weather Station
Location: Worcester, NY
Elevation: 1759 ft
Nearby Weather Stations

Elev 1759 ft 42.62 °N, 74.75 °W | Updated 25 seconds ago

Overcast
Overcast
65.9 °F
Feels Like 65.9 °F
N
0.0
Wind Variable Wind from NNW
Gusts 13.0 mph

Today
High -- | Low -- °F
--% Chance of Precip.
Yesterday
High -- | Low -- °F
Precip. -- in
5:24 AM 8:41 PM
Last Quarter, 36% visible
Pressure 29.86 in
Visibility 7.0 miles
Clouds Scattered Clouds 1000 ft
Mostly Cloudy 2700 ft
Overcast 5500 ft
Dew Point 62 °F
Humidity 88%
Rainfall 0.23 in
Snow Depth Not available.
UV 1 out of 12
Pollen 3.40 out of 12
Ozone Good
PM2.5 Good
Flu Activity Not available.
METAR KSCH 282145Z 28015G23KT 7SM -RA SCT010 BKN027 OVC055 24/20 A2986

More Conditions Fewer Conditions

Pressure 29.86 in
Visibility 7.0 miles
Clouds Scattered Clouds 1000 ft
Mostly Cloudy 2700 ft
Overcast 5500 ft
Dew Point 62 °F
Humidity 88%
Rainfall 0.23 in
Snow Depth Not available.
UV 1 out of 12
Pollen 3.40 out of 12
Ozone Good
PM2.5 Good
Flu Activity Not available.
METAR KSCH 282145Z 28015G23KT 7SM -RA SCT010 BKN027 OVC055 24/20 A2986

More Conditions Fewer Conditions

10-Day Weather Forecast

Almanac

Astronomy

Jun. 28, 2016 Rise Set
Actual Time 5:24 AM EDT 8:41 PM EDT
Civil Twilight 4:49 AM EDT 9:15 PM EDT
Nautical Twilight 4:04 AM EDT 10:00 PM EDT
Astronomical Twilight 3:08 AM EDT 10:56 PM EDT
Moon 1:13 AM EDT (6/28) 2:08 PM EDT (6/28)
Length of Visible Light 16h 26m
Length of Day
15h 16m
Tomorrow will be 0m 33s shorter.
Last Quarter, 36% of the Moon is Illuminated
Today
Last Quarter
Jul 4
New
Jul 11
First Quarter
Jul 19
Full
Jul 26
Last Quarter

Today's Extremes

State Highs State Lows

Community

WunderPhotos

Upload Photos

1,921,409 photos uploaded!

Nearby

Air Quality

  Air Quality AQ Index Pollutant
Yesterday Good
PM2.5
Yesterday Good
OZONE
Current Good
OZONE
Current Good
PM2.5
Tuesday Good
PM2.5
Tuesday Good
OZONE
Wednesday Good
OZONE
Wednesday Good
PM2.5

Snow Depth

Station Depth Elevation
No new snow has been reported.

Earthquake Activity

City Distance Mag. Time & Date
No recent earthquake activity has been reported nearby.
Minimum magnitude displayed is 2.5.

Coastal Water Temperatures

Place Temperature
No Stations Reporting

Nearby Weather Stations